Flugplatz Wahlstedt (EDHW)

Hier findest Du alle Informationen zum Flugplatz Wahlstedt (EDHW).

Informationen für Piloten zum Flugplatz Wahlstedt

Hier findest Du alle relevanten Informationen, die Du als Pilot benötigst, um Wahlstedt anzufliegen.

Flugplatz: Wahlstedt ICAO-Code: EDHW
Frequenz Turm: 121,025 Mhz GAFOR Gebiet: 3
Frequenz Ground: 121,025 Mhz Mogas: nein
Platzrunde: N 1100 ft Landegebühr: -
Platzhöhe: - Sunrise: 02:45 Uhr UTC
Pisten: 11/29 - 600 m x 30 m, GRAS Sunset: 19:57 Uhr UTC

Mitglieder, die in Wahlstedt fliegen

Flugwetter am Flugplatz Wahlstedt

Die METAR Information stammen aus EDHL (37.19 km entfernt).

METAR Code:
2022/06/19 18:50
EDHL 191850Z 32004KT 290V350 9999 SCT006 BKN020 13/13 Q1012

Temperatur: 16,9 °C Niederschlag: - Wind: 2,9 kt (max.: 2,9 kt in Böen)
Temperatur (min.): 14,9 °C Luftdruck: 1010 hPa Windrichtung: 264 °
Temperatur (max.): 17,8 °C Luftfeuchtigkeit: 96 % Bewölkung: 6/8

Flugschulen am Flugplatz Wahlstedt

Am Flugplatz Wahlstedt gibt es leider keine Flugschule.

Benachbarte Flugplätze und Flugschulen

Es gibt 11 weitere Flugplätze in einem Umkreis von 50 km um den Flugplatz Wahlstedt.

Jetzt anmelden

Passwort vergessen

Umfrage Archiv

Sendet Ihr ADS-B und/oder FLARM?

Ja
83.2 %
Nein
16.8 %
Stimmen: 173 | Diskussion
Anzeige: Roland Aircraft
Statistik Alle Mitglieder

Aktuell sind 56 Besucher online.

Anzeige: ULPower Aero Engines Anzeige: Pocket FMS